WXM80 ListenWXM80 Stop

You find our weather info also at:

UK Metoffice

WeatherCloud

Weather Underground

Northeastern Weather Network

AWEKAS

Citizen Weather Observer Program (CWOP)

HAMweather, WeatherForYou, PWS Weather


Weather Underground History page Text

Daily Summary for July 8, 2016 Units:  English    Metric   Both
« Previous Day
Next Day »
Daily Weekly Monthly Yearly Custom
  High: Low: Average:
Temperature: 82.6 °F 68.6 °F 74.5 °F
Dew Point: 75.4 °F 63.1 °F 70.8 °F
Humidity: 98 % 74 % 89 %
Wind Speed: 4.5 mph 0.0 mph 0.9 mph
Wind Gust: 10.4 mph - -
Wind:- - East
Pressure: 29.84 in 29.70 in -
Precipitation: 0.01 in    
Historical Graphs
 
 
Tabular Data for July 8, 2016
Time Temperature Dew Point Pressure Wind Wind Speed Wind Gust Humidity Rainfall Rate (Hourly)
00:01 72.4 °F 70.6 °F 29.72 in Calm     94 % 0.00 in
00:11 72.3 °F 70.8 °F 29.71 in Calm     95 % 0.00 in
00:16 72.3 °F 70.5 °F 29.71 in Calm     94 % 0.00 in
00:21 72.2 °F 70.7 °F 29.71 in Calm     95 % 0.00 in
00:26 72.2 °F 70.7 °F 29.71 in Calm     95 % 0.00 in
00:31 72.2 °F 70.7 °F 29.71 in Calm     95 % 0.00 in
00:36 72.2 °F 70.7 °F 29.71 in Calm     95 % 0.00 in
00:41 72.1 °F 70.6 °F 29.71 in Calm     95 % 0.00 in
00:46 72.1 °F 70.6 °F 29.71 in Calm     95 % 0.00 in
00:51 72.0 °F 70.5 °F 29.71 in Calm     95 % 0.00 in
00:56 72.0 °F 70.5 °F 29.72 in Calm   1.2 mph 95 % 0.00 in
01:02 71.9 °F 70.4 °F 29.71 in Calm     95 % 0.00 in
01:07 71.9 °F 70.4 °F 29.71 in Calm     95 % 0.00 in
01:12 71.8 °F 70.3 °F 29.71 in Calm     95 % 0.00 in
01:17 71.8 °F 70.3 °F 29.71 in Calm     95 % 0.00 in
01:22 71.7 °F 70.2 °F 29.71 in Calm     95 % 0.00 in
01:27 71.7 °F 70.2 °F 29.72 in Calm     95 % 0.00 in
01:32 71.7 °F 70.2 °F 29.72 in Calm     95 % 0.00 in
01:37 71.7 °F 70.2 °F 29.72 in Calm     95 % 0.00 in
01:42 71.7 °F 70.2 °F 29.72 in Calm     95 % 0.00 in
01:47 71.6 °F 70.1 °F 29.72 in Calm     95 % 0.00 in
01:53 71.7 °F 70.2 °F 29.72 in Calm     95 % 0.00 in
01:58 71.7 °F 70.2 °F 29.72 in Calm     95 % 0.00 in
02:03 71.7 °F 70.2 °F 29.72 in Calm     95 % 0.00 in
02:08 71.7 °F 70.2 °F 29.72 in Calm     95 % 0.01 in
02:13 71.7 °F 70.2 °F 29.72 in Calm     95 % 0.01 in
02:18 71.7 °F 70.2 °F 29.72 in Calm     95 % 0.01 in
02:28 71.6 °F 70.1 °F 29.71 in Calm     95 % 0.01 in
02:33 71.7 °F 70.5 °F 29.71 in Calm     96 % 0.01 in
02:38 71.6 °F 70.4 °F 29.71 in Calm     96 % 0.01 in
02:44 71.6 °F 70.4 °F 29.71 in Calm     96 % 0.01 in
02:49 71.6 °F 70.4 °F 29.71 in Calm     96 % 0.01 in
02:54 71.6 °F 70.4 °F 29.71 in Calm     96 % 0.01 in
02:59 71.6 °F 70.4 °F 29.71 in Calm     96 % 0.01 in
03:04 71.6 °F 70.4 °F 29.71 in Calm     96 % 0.01 in
03:09 71.5 °F 70.0 °F 29.71 in Calm     95 % 0.00 in
03:14 71.5 °F 70.0 °F 29.71 in Calm     95 % 0.00 in
03:19 71.5 °F 70.0 °F 29.71 in Calm     95 % 0.00 in
03:24 71.4 °F 69.9 °F 29.71 in Calm     95 % 0.00 in
03:30 71.4 °F 69.9 °F 29.70 in Calm     95 % 0.00 in
03:35 71.4 °F 69.9 °F 29.70 in Calm     95 % 0.00 in
03:40 71.4 °F 69.9 °F 29.70 in Calm     95 % 0.00 in
03:45 71.3 °F 69.8 °F 29.70 in Calm     95 % 0.00 in
03:50 71.3 °F 69.8 °F 29.70 in Calm     95 % 0.00 in
03:55 71.3 °F 69.8 °F 29.70 in Calm     95 % 0.00 in
04:00 71.2 °F 69.7 °F 29.70 in Calm     95 % 0.00 in
04:05 71.2 °F 69.7 °F 29.71 in Calm     95 % 0.00 in
04:10 71.2 °F 70.0 °F 29.70 in Calm     96 % 0.00 in
04:15 71.2 °F 70.0 °F 29.70 in Calm     96 % 0.00 in
04:21 71.2 °F 70.0 °F 29.70 in Calm     96 % 0.00 in
04:26 71.3 °F 70.1 °F 29.70 in Calm     96 % 0.00 in
04:31 71.3 °F 70.1 °F 29.70 in Calm     96 % 0.00 in
04:36 71.3 °F 70.1 °F 29.71 in Calm     96 % 0.00 in
04:41 71.3 °F 70.1 °F 29.71 in Calm     96 % 0.00 in
04:46 71.3 °F 70.1 °F 29.71 in Calm     96 % 0.00 in
04:51 71.3 °F 70.1 °F 29.72 in Calm     96 % 0.00 in
04:56 71.2 °F 70.0 °F 29.72 in Calm     96 % 0.00 in
05:01 71.2 °F 70.0 °F 29.72 in Calm     96 % 0.00 in
05:06 71.1 °F 69.9 °F 29.72 in Calm     96 % 0.00 in
05:11 71.0 °F 69.8 °F 29.72 in Calm     96 % 0.00 in
05:16 71.0 °F 69.8 °F 29.72 in Calm     96 % 0.00 in
05:21 70.9 °F 69.7 °F 29.73 in Calm     96 % 0.00 in
05:26 70.8 °F 69.3 °F 29.73 in Calm     95 % 0.00 in
05:31 70.7 °F 69.2 °F 29.73 in Calm     95 % 0.00 in
05:36 70.6 °F 69.4 °F 29.73 in Calm     96 % 0.00 in
05:41 70.6 °F 69.4 °F 29.73 in Calm     96 % 0.00 in
05:46 70.6 °F 69.4 °F 29.73 in Calm     96 % 0.00 in
05:52 70.7 °F 69.5 °F 29.73 in Calm     96 % 0.00 in
05:57 70.8 °F 69.6 °F 29.74 in Calm     96 % 0.00 in
06:02 70.9 °F 69.7 °F 29.74 in Calm     96 % 0.00 in
06:07 71.0 °F 70.1 °F 29.74 in Calm     97 % 0.00 in
06:12 71.1 °F 70.2 °F 29.74 in Calm     97 % 0.00 in
06:17 71.3 °F 70.4 °F 29.74 in Calm     97 % 0.00 in
06:22 71.5 °F 70.6 °F 29.74 in Calm     97 % 0.00 in
06:27 71.7 °F 70.8 °F 29.74 in Calm     97 % 0.00 in
06:32 72.0 °F 71.1 °F 29.74 in Calm     97 % 0.00 in
06:37 72.3 °F 71.4 °F 29.74 in Calm     97 % 0.00 in
06:43 72.5 °F 71.9 °F 29.74 in Calm     98 % 0.00 in
06:48 72.8 °F 72.2 °F 29.74 in Calm   1.2 mph 98 % 0.00 in
06:53 73.1 °F 72.5 °F 29.74 in Calm     98 % 0.00 in
06:58 73.5 °F 72.9 °F 29.74 in Calm     98 % 0.00 in
07:03 73.7 °F 73.1 °F 29.74 in Calm     98 % 0.00 in
07:08 73.9 °F 73.3 °F 29.75 in Calm   1.2 mph 98 % 0.00 in
07:13 74.0 °F 73.4 °F 29.75 in Calm     98 % 0.00 in
07:18 74.1 °F 73.2 °F 29.75 in Calm   1.2 mph 97 % 0.00 in
07:23 74.2 °F 73.3 °F 29.75 in Calm   1.2 mph 97 % 0.00 in
07:28 74.3 °F 73.7 °F 29.75 in NNW 0.1 mph 1.2 mph 98 % 0.00 in
07:34 74.4 °F 73.5 °F 29.75 in Calm     97 % 0.00 in
07:39 74.4 °F 73.5 °F 29.75 in WNW 0.9 mph 5.0 mph 97 % 0.00 in
07:44 74.4 °F 73.5 °F 29.76 in WNW 0.8 mph 2.3 mph 97 % 0.00 in
07:49 74.4 °F 73.5 °F 29.76 in WNW 2.1 mph 3.5 mph 97 % 0.00 in
07:54 74.4 °F 73.5 °F 29.76 in WNW 0.3 mph 2.3 mph 97 % 0.00 in
07:59 74.3 °F 73.4 °F 29.76 in Calm   2.3 mph 97 % 0.00 in
08:04 74.3 °F 73.4 °F 29.76 in NNW 2.0 mph 3.5 mph 97 % 0.00 in
08:09 74.3 °F 73.4 °F 29.75 in NNE 3.0 mph 4.6 mph 97 % 0.00 in
08:14 74.4 °F 73.5 °F 29.75 in North 1.3 mph 3.5 mph 97 % 0.00 in
08:19 74.4 °F 73.2 °F 29.75 in North 0.3 mph 3.0 mph 96 % 0.00 in
08:25 74.2 °F 73.0 °F 29.76 in NNE 0.8 mph 3.5 mph 96 % 0.00 in
08:30 74.2 °F 72.7 °F 29.75 in NNE 0.4 mph 3.5 mph 95 % 0.00 in
08:35 74.3 °F 73.1 °F 29.76 in NNE 2.0 mph 3.5 mph 96 % 0.00 in
08:40 74.4 °F 73.2 °F 29.76 in NE 0.6 mph 1.2 mph 96 % 0.00 in
08:45 74.5 °F 73.3 °F 29.76 in NE 1.1 mph 3.0 mph 96 % 0.00 in
08:50 74.6 °F 73.1 °F 29.76 in NE 1.9 mph 3.5 mph 95 % 0.00 in
08:55 74.6 °F 73.1 °F 29.76 in NE 2.3 mph 3.5 mph 95 % 0.00 in
09:00 74.6 °F 73.1 °F 29.76 in NE 0.7 mph 2.3 mph 95 % 0.00 in
09:05 74.8 °F 73.3 °F 29.76 in NE 0.8 mph 1.2 mph 95 % 0.00 in
09:10 75.1 °F 73.6 °F 29.77 in NE 0.2 mph 1.2 mph 95 % 0.00 in
09:16 75.2 °F 73.7 °F 29.76 in NE 1.0 mph 2.0 mph 95 % 0.00 in
09:21 75.3 °F 73.4 °F 29.76 in NE 1.0 mph 2.0 mph 94 % 0.00 in
09:26 75.4 °F 73.6 °F 29.76 in NE 0.8 mph 2.3 mph 94 % 0.00 in
09:31 75.5 °F 73.6 °F 29.76 in NE 1.0 mph 2.0 mph 94 % 0.00 in
09:36 75.5 °F 73.3 °F 29.76 in Calm   2.0 mph 93 % 0.00 in
09:41 75.7 °F 73.8 °F 29.77 in NE 0.4 mph 1.2 mph 94 % 0.00 in
09:46 75.8 °F 73.9 °F 29.76 in NE 1.0 mph 2.0 mph 94 % 0.00 in
09:51 76.0 °F 73.8 °F 29.77 in NE 1.0 mph 2.0 mph 93 % 0.00 in
09:56 76.0 °F 73.8 °F 29.77 in NE 1.3 mph 2.3 mph 93 % 0.00 in
10:01 76.1 °F 73.9 °F 29.77 in NE 1.4 mph 2.3 mph 93 % 0.00 in
10:06 76.1 °F 73.6 °F 29.77 in NE 0.8 mph 2.3 mph 92 % 0.00 in
10:17 76.0 °F 73.5 °F 29.77 in NE 0.7 mph 2.3 mph 92 % 0.00 in
10:22 75.9 °F 73.4 °F 29.77 in NE 0.6 mph 2.3 mph 92 % 0.00 in
10:27 76.0 °F 73.5 °F 29.77 in NE 0.5 mph 1.2 mph 92 % 0.00 in
10:32 76.1 °F 73.6 °F 29.78 in NE 0.6 mph 2.3 mph 92 % 0.00 in
10:37 76.1 °F 73.3 °F 29.78 in NE 1.6 mph 3.5 mph 91 % 0.00 in
10:42 76.1 °F 73.3 °F 29.77 in NE 1.7 mph 3.5 mph 91 % 0.00 in
10:47 76.1 °F 73.3 °F 29.78 in ENE 3.8 mph 3.8 mph 91 % 0.00 in
10:53 76.2 °F 73.4 °F 29.78 in NE 0.5 mph 2.3 mph 91 % 0.00 in
10:58 76.2 °F 73.4 °F 29.78 in NE 1.4 mph 3.0 mph 91 % 0.00 in
11:03 76.1 °F 73.0 °F 29.78 in ENE 2.5 mph 4.6 mph 90 % 0.00 in
11:08 76.0 °F 73.2 °F 29.78 in NE 0.4 mph 1.2 mph 91 % 0.00 in
11:13 76.0 °F 73.2 °F 29.78 in NE 0.1 mph 1.2 mph 91 % 0.00 in
11:18 76.2 °F 73.7 °F 29.78 in NE 1.0 mph 2.3 mph 92 % 0.00 in
11:23 76.4 °F 73.9 °F 29.78 in NE 1.0 mph 2.3 mph 92 % 0.00 in
11:28 76.5 °F 73.7 °F 29.78 in NE 1.1 mph 2.3 mph 91 % 0.00 in
11:33 76.6 °F 73.4 °F 29.78 in NE 1.4 mph 2.3 mph 90 % 0.00 in
11:38 76.5 °F 73.3 °F 29.78 in NE 1.4 mph 2.3 mph 90 % 0.00 in
11:44 76.5 °F 73.3 °F 29.78 in NE 1.0 mph 2.3 mph 90 % 0.00 in
11:49 76.6 °F 73.8 °F 29.78 in ENE 2.6 mph 4.6 mph 91 % 0.00 in
11:54 76.6 °F 73.4 °F 29.79 in NE 2.1 mph 3.5 mph 90 % 0.00 in
11:59 76.4 °F 73.2 °F 29.79 in ENE 2.4 mph 6.9 mph 90 % 0.00 in
12:04 76.4 °F 73.2 °F 29.79 in NE 0.3 mph 1.2 mph 90 % 0.00 in
12:09 76.4 °F 73.2 °F 29.79 in Calm   1.2 mph 90 % 0.00 in
12:14 76.4 °F 73.2 °F 29.79 in Calm     90 % 0.00 in
12:19 76.5 °F 73.3 °F 29.79 in NE 0.4 mph 1.2 mph 90 % 0.00 in
12:24 76.4 °F 73.2 °F 29.80 in NE 1.4 mph 2.3 mph 90 % 0.00 in
12:29 76.4 °F 73.2 °F 29.79 in ENE 1.5 mph 3.5 mph 90 % 0.00 in
12:35 76.4 °F 73.6 °F 29.78 in ENE 1.7 mph 2.3 mph 91 % 0.00 in
12:40 77.0 °F 74.5 °F 29.78 in ENE 1.5 mph 3.5 mph 92 % 0.00 in
12:45 77.9 °F 75.4 °F 29.78 in ENE 1.6 mph 3.5 mph 92 % 0.00 in
12:50 78.6 °F 75.1 °F 29.78 in ENE 1.8 mph 3.5 mph 89 % 0.00 in
12:55 79.1 °F 74.9 °F 29.78 in ENE 1.6 mph 3.5 mph 87 % 0.00 in
13:00 79.4 °F 75.2 °F 29.79 in ENE 2.2 mph 4.0 mph 87 % 0.00 in
13:05 79.3 °F 74.4 °F 29.79 in ENE 1.4 mph 2.3 mph 85 % 0.00 in
13:10 79.1 °F 74.2 °F 29.79 in East 1.4 mph 2.3 mph 85 % 0.00 in
13:15 79.0 °F 74.5 °F 29.78 in East 1.7 mph 3.5 mph 86 % 0.00 in
13:20 79.0 °F 74.1 °F 29.79 in NE 1.7 mph 2.3 mph 85 % 0.00 in
13:26 79.1 °F 73.8 °F 29.79 in ENE 1.6 mph 3.0 mph 84 % 0.00 in
13:31 79.1 °F 74.2 °F 29.79 in ENE 1.0 mph 6.0 mph 85 % 0.00 in
13:36 79.6 °F 75.0 °F 29.79 in ENE 1.0 mph 3.0 mph 86 % 0.00 in
13:41 80.2 °F 74.9 °F 29.79 in ENE 1.2 mph 3.5 mph 84 % 0.00 in
13:46 80.3 °F 74.3 °F 29.79 in ENE 1.0 mph 3.0 mph 82 % 0.00 in
13:51 80.2 °F 74.2 °F 29.79 in ENE 1.0 mph 3.0 mph 82 % 0.00 in
13:56 80.1 °F 74.5 °F 29.79 in ENE 1.7 mph 3.5 mph 83 % 0.00 in
14:01 80.2 °F 74.6 °F 29.79 in East 1.8 mph 3.5 mph 83 % 0.00 in
14:06 80.2 °F 73.8 °F 29.79 in ENE 1.8 mph 3.5 mph 81 % 0.00 in
14:11 80.5 °F 74.1 °F 29.79 in ENE 1.5 mph 2.3 mph 81 % 0.00 in
14:16 80.8 °F 74.4 °F 29.79 in ENE 1.7 mph 2.3 mph 81 % 0.00 in
14:21 80.9 °F 73.8 °F 29.79 in ENE 1.7 mph 3.5 mph 79 % 0.00 in
14:26 80.8 °F 74.4 °F 29.79 in East 1.8 mph 3.5 mph 81 % 0.00 in
14:31 81.1 °F 74.3 °F 29.78 in ENE 2.3 mph 3.5 mph 80 % 0.00 in
14:36 81.5 °F 74.7 °F 29.79 in ENE 2.2 mph 3.5 mph 80 % 0.00 in
14:41 81.9 °F 74.4 °F 29.78 in ENE 2.5 mph 3.5 mph 78 % 0.00 in
14:46 82.1 °F 74.2 °F 29.78 in ENE 1.7 mph 3.5 mph 77 % 0.00 in
14:52 82.4 °F 74.5 °F 29.78 in ENE 1.7 mph 3.5 mph 77 % 0.00 in
14:57 82.5 °F 74.6 °F 29.78 in ENE 1.7 mph 4.0 mph 77 % 0.00 in
15:02 82.4 °F 74.1 °F 29.78 in NE 2.0 mph 3.5 mph 76 % 0.00 in
15:07 82.4 °F 74.1 °F 29.78 in NE 1.6 mph 3.5 mph 76 % 0.00 in
15:12 82.5 °F 73.8 °F 29.78 in ENE 2.0 mph 3.5 mph 75 % 0.00 in
15:17 82.6 °F 74.3 °F 29.78 in ENE 1.8 mph 2.3 mph 76 % 0.00 in
15:22 82.6 °F 74.3 °F 29.77 in East 1.9 mph 4.6 mph 76 % 0.00 in
15:27 82.3 °F 73.6 °F 29.77 in ENE 1.6 mph 2.3 mph 75 % 0.00 in
15:32 82.2 °F 73.5 °F 29.78 in ENE 2.6 mph 3.5 mph 75 % 0.00 in
15:39 82.2 °F 73.5 °F 29.78 in ENE 2.5 mph 5.0 mph 75 % 0.00 in
15:48 82.1 °F 73.4 °F 29.77 in ENE 3.4 mph 7.0 mph 75 % 0.00 in
15:53 81.9 °F 72.8 °F 29.77 in ENE 2.1 mph 6.0 mph 74 % 0.00 in
15:58 81.6 °F 72.5 °F 29.78 in ENE 2.0 mph 4.0 mph 74 % 0.00 in
16:03 80.9 °F 72.2 °F 29.77 in ENE 3.2 mph 4.6 mph 75 % 0.00 in
16:08 80.3 °F 72.4 °F 29.77 in ESE 1.1 mph 2.3 mph 77 % 0.00 in
16:13 80.2 °F 72.3 °F 29.77 in ENE 2.4 mph 3.5 mph 77 % 0.00 in
16:18 79.9 °F 71.7 °F 29.77 in NE 2.0 mph 4.0 mph 76 % 0.00 in
16:23 79.4 °F 71.6 °F 29.78 in ENE 3.1 mph 6.9 mph 77 % 0.00 in
16:34 79.0 °F 71.6 °F 29.78 in ENE 3.0 mph 4.6 mph 78 % 0.00 in
16:39 78.7 °F 71.6 °F 29.78 in East 1.9 mph 3.5 mph 79 % 0.00 in
16:44 78.8 °F 71.7 °F 29.78 in ENE 2.1 mph 3.5 mph 79 % 0.00 in
16:49 78.8 °F 71.7 °F 29.78 in East 1.8 mph 3.5 mph 79 % 0.00 in
16:59 78.1 °F 70.7 °F 29.78 in ENE 2.2 mph 4.6 mph 78 % 0.00 in
17:04 77.6 °F 70.9 °F 29.77 in ENE 1.6 mph 2.3 mph 80 % 0.00 in
17:09 77.3 °F 70.6 °F 29.77 in ENE 2.0 mph 3.5 mph 80 % 0.00 in
17:14 76.9 °F 70.6 °F 29.77 in ENE 1.7 mph 2.3 mph 81 % 0.00 in
17:20 76.7 °F 70.8 °F 29.77 in East 1.5 mph 3.5 mph 82 % 0.00 in
17:25 76.5 °F 70.9 °F 29.78 in East 1.3 mph 2.3 mph 83 % 0.00 in
17:30 76.4 °F 70.9 °F 29.77 in East 1.7 mph 3.5 mph 83 % 0.00 in
17:35 76.3 °F 70.8 °F 29.77 in East 1.6 mph 3.0 mph 83 % 0.00 in
17:40 76.3 °F 71.1 °F 29.77 in East 1.4 mph 2.3 mph 84 % 0.00 in
17:45 76.2 °F 71.0 °F 29.78 in East 1.6 mph 3.0 mph 84 % 0.00 in
17:50 76.2 °F 70.7 °F 29.77 in East 1.7 mph 3.5 mph 83 % 0.00 in
17:55 76.0 °F 70.8 °F 29.77 in ESE 1.2 mph 2.3 mph 84 % 0.00 in
18:00 75.9 °F 70.7 °F 29.78 in ESE 0.7 mph 2.0 mph 84 % 0.00 in
18:05 76.0 °F 70.8 °F 29.78 in SE 0.5 mph 1.2 mph 84 % 0.00 in
18:11 76.0 °F 70.5 °F 29.78 in Calm   2.0 mph 83 % 0.00 in
18:16 76.0 °F 70.5 °F 29.78 in SE 1.0 mph 7.0 mph 83 % 0.00 in
18:21 76.0 °F 70.5 °F 29.78 in Calm   3.0 mph 83 % 0.00 in
18:26 76.0 °F 70.4 °F 29.78 in Calm   1.0 mph 83 % 0.00 in
18:31 75.8 °F 70.3 °F 29.78 in SE 2.0 mph 5.0 mph 83 % 0.00 in
18:36 75.7 °F 69.8 °F 29.78 in Calm   5.0 mph 82 % 0.00 in
18:41 75.7 °F 70.2 °F 29.78 in SE 1.0 mph 3.0 mph 83 % 0.00 in
18:46 75.7 °F 69.8 °F 29.78 in SE 2.0 mph 4.0 mph 82 % 0.00 in
18:51 75.7 °F 69.8 °F 29.79 in SE 1.0 mph 4.0 mph 82 % 0.00 in
18:56 75.7 °F 69.5 °F 29.79 in SE 1.2 mph 3.5 mph 81 % 0.00 in
19:01 75.7 °F 69.8 °F 29.80 in SE 1.0 mph 1.0 mph 82 % 0.00 in
19:06 75.7 °F 69.8 °F 29.80 in SE 0.1 mph 1.2 mph 82 % 0.00 in
19:11 75.7 °F 69.8 °F 29.80 in Calm     82 % 0.00 in
19:16 75.6 °F 69.7 °F 29.80 in SE 0.1 mph 1.2 mph 82 % 0.00 in
19:21 75.5 °F 69.3 °F 29.80 in SE 1.4 mph 3.5 mph 81 % 0.00 in
19:26 75.5 °F 69.3 °F 29.80 in SE 0.1 mph 1.2 mph 81 % 0.00 in
19:31 75.4 °F 69.2 °F 29.80 in SE 0.5 mph 3.5 mph 81 % 0.00 in
19:36 75.2 °F 69.3 °F 29.80 in SE 0.2 mph 2.3 mph 82 % 0.00 in
19:41 75.0 °F 68.8 °F 29.80 in SSE 0.3 mph 2.3 mph 81 % 0.00 in
19:46 74.9 °F 68.7 °F 29.80 in SE 3.2 mph 4.6 mph 81 % 0.00 in
19:52 74.6 °F 68.4 °F 29.80 in Calm   2.3 mph 81 % 0.00 in
19:57 74.4 °F 68.2 °F 29.81 in SE 0.2 mph 3.5 mph 81 % 0.00 in
20:02 74.2 °F 68.3 °F 29.80 in SE 2.0 mph 3.5 mph 82 % 0.00 in
20:07 74.1 °F 68.3 °F 29.80 in SE 0.8 mph 2.3 mph 82 % 0.00 in
20:12 74.0 °F 68.2 °F 29.81 in SE 1.5 mph 3.5 mph 82 % 0.00 in
20:17 73.8 °F 68.0 °F 29.80 in SE 0.4 mph 2.3 mph 82 % 0.00 in
20:22 73.7 °F 67.9 °F 29.80 in SE 0.5 mph 1.2 mph 82 % 0.00 in
20:27 73.4 °F 67.6 °F 29.81 in SE 0.6 mph 2.3 mph 82 % 0.00 in
20:32 73.3 °F 67.5 °F 29.81 in SE 2.9 mph 5.0 mph 82 % 0.00 in
20:37 73.0 °F 67.2 °F 29.81 in Calm   2.3 mph 82 % 0.00 in
20:43 72.8 °F 67.0 °F 29.82 in SSE 2.4 mph 5.0 mph 82 % 0.00 in
20:48 72.6 °F 67.1 °F 29.81 in SE 2.3 mph 7.0 mph 83 % 0.00 in
20:53 72.5 °F 67.0 °F 29.81 in SE 4.5 mph 6.9 mph 83 % 0.00 in
20:58 72.3 °F 66.8 °F 29.81 in SE 1.6 mph 3.5 mph 83 % 0.00 in
21:03 72.1 °F 66.6 °F 29.81 in SE 2.7 mph 3.5 mph 83 % 0.00 in
21:08 72.0 °F 66.6 °F 29.82 in SE 3.1 mph 4.6 mph 83 % 0.00 in
21:13 71.8 °F 66.4 °F 29.82 in SE 0.3 mph 3.5 mph 83 % 0.00 in
21:18 71.7 °F 66.3 °F 29.83 in SE 1.4 mph 3.5 mph 83 % 0.00 in
21:23 71.5 °F 66.1 °F 29.83 in SE 1.8 mph 3.5 mph 83 % 0.00 in
21:28 71.4 °F 66.0 °F 29.83 in SE 2.3 mph 4.6 mph 83 % 0.00 in
21:34 71.3 °F 65.9 °F 29.83 in SE 3.6 mph 5.8 mph 83 % 0.00 in
21:39 71.2 °F 65.8 °F 29.82 in SE 3.2 mph 5.8 mph 83 % 0.00 in
21:44 71.0 °F 65.6 °F 29.82 in ESE 0.7 mph 3.5 mph 83 % 0.00 in
21:49 70.8 °F 65.4 °F 29.83 in SE 1.8 mph 3.5 mph 83 % 0.00 in
21:54 70.8 °F 65.7 °F 29.83 in SE 3.2 mph 5.8 mph 84 % 0.00 in
21:59 70.6 °F 65.5 °F 29.83 in ESE 0.6 mph 2.3 mph 84 % 0.00 in
22:04 70.4 °F 65.3 °F 29.83 in ESE 0.8 mph 3.0 mph 84 % 0.00 in
22:09 70.3 °F 65.2 °F 29.83 in ESE 3.6 mph 5.0 mph 84 % 0.00 in
22:14 70.3 °F 65.2 °F 29.83 in SE 2.1 mph 3.5 mph 84 % 0.00 in
22:19 70.3 °F 65.2 °F 29.83 in ESE 2.0 mph 5.0 mph 84 % 0.00 in
22:25 70.3 °F 65.2 °F 29.84 in Calm   3.5 mph 84 % 0.00 in
22:30 70.2 °F 64.8 °F 29.84 in SSE 2.5 mph 5.8 mph 83 % 0.00 in
22:35 70.1 °F 64.7 °F 29.84 in ESE 0.8 mph 6.9 mph 83 % 0.00 in
22:40 70.0 °F 64.6 °F 29.84 in SE 0.2 mph 1.2 mph 83 % 0.00 in
22:45 69.9 °F 64.2 °F 29.84 in SSE 2.9 mph 4.0 mph 82 % 0.00 in
22:50 69.8 °F 64.1 °F 29.84 in ESE 1.6 mph 4.6 mph 82 % 0.00 in
22:55 69.8 °F 64.1 °F 29.84 in SE 0.7 mph 5.8 mph 82 % 0.00 in
23:00 69.6 °F 63.9 °F 29.84 in ESE 0.8 mph 3.5 mph 82 % 0.00 in
23:05 69.5 °F 63.4 °F 29.84 in SE 0.8 mph 10.4 mph 81 % 0.00 in
23:10 69.3 °F 63.2 °F 29.84 in ESE 1.0 mph 3.5 mph 81 % 0.00 in
23:15 69.3 °F 63.6 °F 29.84 in Calm   3.0 mph 82 % 0.00 in
23:20 69.2 °F 63.5 °F 29.84 in ESE 1.0 mph 4.0 mph 82 % 0.00 in
23:25 69.1 °F 63.7 °F 29.84 in ESE 1.0 mph 3.0 mph 83 % 0.00 in
23:31 69.0 °F 63.6 °F 29.84 in Calm   4.0 mph 83 % 0.00 in
23:35 68.9 °F 63.5 °F 29.84 in Calm   2.0 mph 83 % 0.00 in
23:40 68.8 °F 63.1 °F 29.84 in Calm   2.0 mph 82 % 0.00 in
23:45 68.7 °F 63.3 °F 29.84 in Calm   2.0 mph 83 % 0.00 in
23:50 68.6 °F 63.2 °F 29.84 in Calm   1.0 mph 83 % 0.00 in
23:55 68.6 °F 63.6 °F 29.84 in Calm   1.0 mph 84 % 0.00 in
Crab Meadow Weather
Compliments of Weather Underground - 2.75 mb

Script developed by  Jim McMurry - jmcmurry@mwt.net Adapted for the template by  Wim van der Kuil - Leuven-Template.eu

Heat Index: The heat index combines air temperature and dew point in an attempt to determine the human-perceived equivalent temperature - how hot it feels. The human body normally cools itself by sweating, which evaporates and carries heat away from the body. However, when the relative humidity is high the evaporation rate is reduced, so heat is removed from the body at a lower rate causing it to retain more heat than it would in dry air.